createdAt,value
2017-08-22T00:00:18.572Z,58.63
2017-08-22T00:00:50.836Z,58.72
2017-08-22T00:01:23.092Z,58.63
2017-08-22T00:01:55.374Z,58.89
2017-08-22T00:02:27.644Z,58.6
2017-08-22T00:02:59.916Z,59.11
2017-08-22T00:03:32.203Z,59.3
2017-08-22T00:04:04.497Z,58.72
2017-08-22T00:04:36.845Z,58.63
2017-08-22T00:05:09.154Z,58.72
2017-08-22T00:05:41.440Z,59.11
2017-08-22T00:06:13.717Z,59.3
2017-08-22T00:06:46.019Z,59.3
2017-08-22T00:07:18.307Z,58.92
2017-08-22T00:07:50.583Z,58.72
2017-08-22T00:08:22.871Z,58.92
2017-08-22T00:08:55.159Z,58.7
2017-08-22T00:09:27.458Z,58.92
2017-08-22T00:09:59.781Z,59.17
2017-08-22T00:10:32.090Z,58.72
2017-08-22T00:11:04.389Z,58.92
2017-08-22T00:11:36.682Z,59.11
2017-08-22T00:12:08.985Z,59.11
2017-08-22T00:12:41.282Z,59.17
2017-08-22T00:13:13.572Z,58.82
2017-08-22T00:13:45.876Z,58.79
2017-08-22T00:14:18.178Z,58.98
2017-08-22T00:14:50.462Z,59.11
2017-08-22T00:15:22.768Z,58.98
2017-08-22T00:15:55.079Z,58.98
2017-08-22T00:16:27.380Z,59.08
2017-08-22T00:16:59.672Z,58.98
2017-08-22T00:17:31.971Z,58.98
2017-08-22T00:18:04.257Z,58.89
2017-08-22T00:18:36.561Z,58.98
2017-08-22T00:19:08.875Z,58.98
2017-08-22T00:19:41.179Z,59.08
2017-08-22T00:20:13.467Z,59.08
2017-08-22T00:20:45.758Z,59.08
2017-08-22T00:21:18.071Z,58.79
2017-08-22T00:21:50.377Z,58.98
2017-08-22T00:22:22.683Z,58.98
2017-08-22T00:22:54.985Z,59.08
2017-08-22T00:23:27.252Z,58.89
2017-08-22T00:23:59.582Z,58.89
2017-08-22T00:24:31.854Z,58.89
2017-08-22T00:25:04.173Z,58.98
2017-08-22T00:25:36.523Z,58.98
2017-08-22T00:26:08.768Z,58.98
2017-08-22T00:26:41.064Z,58.98
2017-08-22T00:27:13.332Z,58.79
2017-08-22T00:27:45.591Z,58.98
2017-08-22T00:28:18.760Z,58.98
2017-08-22T00:28:51.042Z,59.08
2017-08-22T00:29:23.781Z,58.98
2017-08-22T00:29:56.050Z,58.79
2017-08-22T00:30:28.304Z,58.89
2017-08-22T00:31:00.548Z,59.27
2017-08-22T00:31:32.805Z,59.08
2017-08-22T00:32:05.083Z,58.98
2017-08-22T00:32:37.421Z,59.08
2017-08-22T00:33:09.702Z,59.17
2017-08-22T00:33:41.946Z,58.79
2017-08-22T00:34:14.299Z,59.17
2017-08-22T00:34:46.575Z,59.08
2017-08-22T00:35:18.865Z,58.98
2017-08-22T00:35:51.120Z,59.17
2017-08-22T00:36:23.389Z,59.08
2017-08-22T00:36:55.660Z,59.17
2017-08-22T00:37:27.903Z,58.98
2017-08-22T00:38:00.174Z,58.98
2017-08-22T00:38:32.412Z,59.17
2017-08-22T00:39:04.675Z,59.17
2017-08-22T00:39:36.924Z,58.89
2017-08-22T00:40:09.185Z,59.27
2017-08-22T00:40:41.464Z,58.98
2017-08-22T00:41:13.717Z,59.08
2017-08-22T00:41:45.992Z,59.17
2017-08-22T00:42:18.247Z,59.08
2017-08-22T00:42:50.518Z,59.27
2017-08-22T00:43:22.780Z,59.27
2017-08-22T00:43:55.046Z,59.17
2017-08-22T00:44:27.298Z,59.27
2017-08-22T00:44:59.617Z,59.17
2017-08-22T00:45:31.886Z,58.98
2017-08-22T00:46:04.144Z,59.27
2017-08-22T00:46:36.501Z,58.98
2017-08-22T00:47:08.898Z,59.27
2017-08-22T00:47:41.159Z,59.27
2017-08-22T00:48:13.433Z,59.08
2017-08-22T00:48:45.702Z,59.08
2017-08-22T00:49:17.981Z,59.27
2017-08-22T00:49:50.261Z,59.27
2017-08-22T00:50:22.510Z,59.27
2017-08-22T00:50:54.774Z,59.27
2017-08-22T00:51:27.031Z,59.27
2017-08-22T00:51:59.277Z,59.27
2017-08-22T00:52:31.575Z,59.17
2017-08-22T00:55:13.928Z,59.27
2017-08-22T00:55:46.171Z,59.17
2017-08-22T00:56:18.426Z,59.27
2017-08-22T00:56:50.683Z,59.27
2017-08-22T00:57:22.938Z,59.08
2017-08-22T00:57:55.212Z,59.27
2017-08-22T00:58:27.472Z,59.37
2017-08-22T00:58:59.768Z,59.27
2017-08-22T00:59:32.014Z,58.89
2017-08-22T01:00:04.279Z,58.89
2017-08-22T01:00:36.553Z,59.08
2017-08-22T01:01:08.793Z,58.89
2017-08-22T01:01:41.065Z,58.89
2017-08-22T01:02:13.443Z,58.89
2017-08-22T01:02:45.697Z,59.37
2017-08-22T01:03:17.948Z,59.08
2017-08-22T01:03:50.261Z,59.37
2017-08-22T01:04:22.531Z,59.27
2017-08-22T01:04:54.801Z,59.37
2017-08-22T01:05:27.128Z,59.08
2017-08-22T01:05:59.419Z,59.37
2017-08-22T01:06:31.698Z,59.47
2017-08-22T01:07:04.013Z,59.47
2017-08-22T01:07:36.292Z,59.47
2017-08-22T01:08:08.539Z,58.89
2017-08-22T01:08:40.802Z,59.47
2017-08-22T01:09:13.190Z,59.47
2017-08-22T01:09:45.477Z,58.89
2017-08-22T01:10:17.731Z,59.08
2017-08-22T01:10:49.996Z,59.15
2017-08-22T01:11:22.275Z,59.27
2017-08-22T01:11:54.545Z,59.27
2017-08-22T01:12:26.840Z,59.27
2017-08-22T01:12:59.126Z,59.56
2017-08-22T01:13:31.428Z,59.47
2017-08-22T01:14:03.732Z,59.47
2017-08-22T01:14:36.025Z,59.37
2017-08-22T01:15:08.345Z,59.44
2017-08-22T01:15:40.655Z,59.27
2017-08-22T01:16:12.944Z,59.37
2017-08-22T01:16:45.241Z,59.37
2017-08-22T01:17:17.526Z,59.34
2017-08-22T01:17:49.820Z,59.34
2017-08-22T01:18:22.122Z,59.37
2017-08-22T01:18:54.422Z,59.63
2017-08-22T01:19:26.732Z,59.56
2017-08-22T01:19:59.043Z,59.66
2017-08-22T01:20:31.338Z,59.34
2017-08-22T01:21:03.642Z,59.24
2017-08-22T01:21:35.947Z,59.15
2017-08-22T01:22:08.244Z,59.53
2017-08-22T01:22:40.546Z,59.15
2017-08-22T01:23:12.897Z,59.15
2017-08-22T01:23:45.166Z,59.44
2017-08-22T01:24:17.467Z,59.72
2017-08-22T01:24:49.714Z,59.34
2017-08-22T01:25:21.958Z,59.63
2017-08-22T01:25:54.357Z,59.72
2017-08-22T01:26:26.602Z,59.44
2017-08-22T01:26:58.867Z,59.24
2017-08-22T01:27:31.139Z,59.34
2017-08-22T01:28:03.409Z,59.24
2017-08-22T01:28:35.670Z,59.72
2017-08-22T01:29:08.055Z,59.63
2017-08-22T01:29:40.305Z,59.53
2017-08-22T01:30:12.555Z,59.53
2017-08-22T01:30:44.830Z,59.63
2017-08-22T01:31:17.117Z,59.53
2017-08-22T01:31:49.460Z,59.44
2017-08-22T01:32:21.744Z,59.24
2017-08-22T01:32:54.017Z,59.53
2017-08-22T01:33:26.322Z,59.72
2017-08-22T01:33:58.615Z,59.53
2017-08-22T01:34:30.912Z,59.53
2017-08-22T01:35:03.207Z,59.53
2017-08-22T01:35:35.507Z,59.63
2017-08-22T01:36:07.814Z,59.53
2017-08-22T01:36:40.125Z,59.44
2017-08-22T01:37:12.412Z,59.53
2017-08-22T01:37:44.715Z,59.44
2017-08-22T01:38:17.020Z,59.44
2017-08-22T01:38:49.326Z,59.44
2017-08-22T01:39:21.612Z,59.53
2017-08-22T01:39:53.920Z,59.44
2017-08-22T01:40:26.200Z,59.44
2017-08-22T01:40:58.504Z,59.44
2017-08-22T01:41:30.794Z,59.34
2017-08-22T01:42:03.099Z,59.44
2017-08-22T01:42:35.398Z,59.34
2017-08-22T01:43:07.660Z,59.53
2017-08-22T01:43:39.907Z,59.44
2017-08-22T01:44:12.173Z,59.53
2017-08-22T01:44:44.442Z,59.34
2017-08-22T01:45:16.717Z,59.34
2017-08-22T01:45:48.972Z,59.44
2017-08-22T01:46:21.239Z,59.53
2017-08-22T01:46:53.654Z,59.15
2017-08-22T01:47:25.916Z,59.15
2017-08-22T01:47:58.180Z,59.44
2017-08-22T01:48:30.443Z,59.34
2017-08-22T01:49:02.768Z,59.44
2017-08-22T01:49:35.037Z,59.34
2017-08-22T01:50:07.318Z,59.34
2017-08-22T01:50:39.582Z,59.44
2017-08-22T01:51:11.849Z,59.44
2017-08-22T01:51:44.123Z,59.44
2017-08-22T01:52:16.382Z,59.15
2017-08-22T01:52:48.635Z,59.44
2017-08-22T01:53:20.924Z,59.34
2017-08-22T01:53:53.228Z,59.05
2017-08-22T01:54:25.530Z,59.44
2017-08-22T01:54:57.816Z,59.44
2017-08-22T01:55:30.100Z,59.34
2017-08-22T01:56:02.410Z,59.34
2017-08-22T01:56:34.710Z,59.05
2017-08-22T01:57:07.003Z,59.15
2017-08-22T01:57:39.305Z,59.34
2017-08-22T01:58:11.608Z,59.44
2017-08-22T01:58:43.894Z,59.44
2017-08-22T01:59:16.191Z,59.53
2017-08-22T01:59:48.501Z,59.44
2017-08-22T02:00:20.767Z,58.95
2017-08-22T02:00:53.066Z,59.24
2017-08-22T02:01:25.380Z,59.34
2017-08-22T02:01:57.672Z,59.24
2017-08-22T02:02:29.976Z,59.34
2017-08-22T02:03:02.283Z,59.05
2017-08-22T02:03:34.569Z,59.05
2017-08-22T02:04:06.869Z,59.05
2017-08-22T02:04:39.182Z,59.05
2017-08-22T02:05:11.479Z,59.24
2017-08-22T02:05:43.773Z,59.34
2017-08-22T02:06:16.059Z,59.24
2017-08-22T02:06:48.366Z,59.24
2017-08-22T02:07:20.654Z,59.34
2017-08-22T02:07:52.938Z,59.24
2017-08-22T02:08:25.242Z,59.05
2017-08-22T02:08:57.530Z,59.44
2017-08-22T02:09:29.831Z,59.34
2017-08-22T02:10:02.144Z,59.05
2017-08-22T02:10:34.438Z,59.24
2017-08-22T02:11:06.758Z,59.34
2017-08-22T02:11:39.064Z,59.05
2017-08-22T02:12:11.380Z,59.15
2017-08-22T02:12:43.666Z,59.24
2017-08-22T02:13:15.973Z,59.34
2017-08-22T02:13:48.258Z,59.34
2017-08-22T02:14:20.556Z,59.44
2017-08-22T02:14:52.848Z,59.05
2017-08-22T02:15:25.152Z,59.15
2017-08-22T02:15:57.470Z,59.92
2017-08-22T02:16:29.784Z,60.01
2017-08-22T02:17:02.078Z,59.44
2017-08-22T02:17:34.376Z,59.44
2017-08-22T02:18:06.687Z,59.44
2017-08-22T02:18:38.992Z,59.53
2017-08-22T02:19:11.287Z,59.63
2017-08-22T02:19:43.579Z,59.92
2017-08-22T02:20:15.873Z,59.82
2017-08-22T02:20:48.169Z,59.53
2017-08-22T02:21:20.473Z,59.34
2017-08-22T02:21:52.784Z,59.34
2017-08-22T02:22:25.075Z,59.63
2017-08-22T02:22:57.372Z,59.63
2017-08-22T02:23:29.688Z,59.34
2017-08-22T02:24:01.987Z,59.82
2017-08-22T02:24:34.277Z,59.34
2017-08-22T02:25:06.563Z,59.44
2017-08-22T02:25:38.849Z,59.44
2017-08-22T02:26:11.145Z,59.44
2017-08-22T02:26:43.439Z,59.34
2017-08-22T02:27:15.726Z,59.44
2017-08-22T02:27:48.031Z,59.44
2017-08-22T02:28:20.335Z,59.92
2017-08-22T02:28:52.620Z,59.92
2017-08-22T02:29:24.937Z,59.44
2017-08-22T02:29:57.259Z,59.5
2017-08-22T02:30:29.570Z,59.89
2017-08-22T02:31:01.862Z,59.53
2017-08-22T02:31:34.177Z,59.5
2017-08-22T02:32:06.477Z,59.82
2017-08-22T02:32:38.782Z,59.5
2017-08-22T02:33:11.077Z,59.72
2017-08-22T02:33:43.382Z,59.53
2017-08-22T02:34:15.687Z,59.44
2017-08-22T02:34:47.990Z,59.5
2017-08-22T02:35:20.271Z,59.69
2017-08-22T02:35:52.558Z,59.69
2017-08-22T02:36:24.838Z,59.72
2017-08-22T02:36:57.136Z,59.72
2017-08-22T02:37:29.428Z,59.5
2017-08-22T02:38:01.726Z,59.69
2017-08-22T02:38:34.051Z,59.82
2017-08-22T02:39:06.352Z,59.79
2017-08-22T02:39:38.651Z,59.82
2017-08-22T02:40:10.945Z,59.69
2017-08-22T02:40:43.244Z,59.72
2017-08-22T02:41:15.533Z,59.69
2017-08-22T02:41:47.832Z,59.69
2017-08-22T02:42:20.120Z,59.6
2017-08-22T02:42:52.408Z,59.69
2017-08-22T02:43:24.707Z,59.72
2017-08-22T02:43:57.013Z,59.69
2017-08-22T02:44:29.328Z,59.82
2017-08-22T02:45:01.634Z,59.6
2017-08-22T02:45:33.951Z,59.92
2017-08-22T02:46:06.242Z,59.63
2017-08-22T02:46:38.551Z,59.72
2017-08-22T02:47:10.861Z,59.72
2017-08-22T02:47:43.172Z,59.79
2017-08-22T02:48:15.488Z,59.79
2017-08-22T02:48:47.786Z,59.99
2017-08-22T02:49:20.084Z,59.69
2017-08-22T02:49:52.387Z,59.89
2017-08-22T02:50:24.707Z,59.69
2017-08-22T02:50:56.997Z,59.6
2017-08-22T02:51:29.298Z,59.79
2017-08-22T02:52:01.597Z,59.79
2017-08-22T02:52:33.905Z,59.69
2017-08-22T02:53:06.255Z,59.79
2017-08-22T02:53:38.542Z,59.6
2017-08-22T02:54:10.818Z,59.99
2017-08-22T02:54:43.093Z,59.89
2017-08-22T02:55:15.360Z,59.89
2017-08-22T02:55:47.628Z,59.99
2017-08-22T02:56:19.900Z,59.79
2017-08-22T02:56:52.177Z,59.79
2017-08-22T02:57:24.423Z,59.69
2017-08-22T02:57:56.676Z,59.89
2017-08-22T02:58:28.936Z,59.6
2017-08-22T02:59:01.202Z,59.69
2017-08-22T02:59:33.457Z,59.79
2017-08-22T03:00:05.867Z,59.79
2017-08-22T03:00:38.141Z,59.69
2017-08-22T03:01:10.410Z,59.69
2017-08-22T03:01:42.689Z,59.6
2017-08-22T03:02:14.972Z,59.69
2017-08-22T03:02:47.247Z,59.69
2017-08-22T03:03:19.530Z,59.89
2017-08-22T03:03:51.856Z,59.89
2017-08-22T03:04:24.163Z,59.89
2017-08-22T03:04:56.460Z,59.69
2017-08-22T03:05:28.763Z,59.5
2017-08-22T03:06:01.084Z,59.6
2017-08-22T03:06:33.386Z,59.69
2017-08-22T03:07:05.687Z,59.6
2017-08-22T03:07:38.006Z,59.79
2017-08-22T03:08:10.306Z,59.69
2017-08-22T03:08:42.581Z,59.89
2017-08-22T03:09:14.890Z,59.69
2017-08-22T03:09:47.187Z,59.5
2017-08-22T03:10:19.484Z,59.69
2017-08-22T03:10:51.798Z,59.89
2017-08-22T03:11:24.097Z,59.69
2017-08-22T03:11:56.385Z,59.89
2017-08-22T03:12:28.677Z,59.69
2017-08-22T03:13:00.966Z,59.69
2017-08-22T03:13:33.232Z,59.89
2017-08-22T03:14:05.486Z,59.69
2017-08-22T03:14:37.759Z,59.69
2017-08-22T03:15:10.011Z,59.69
2017-08-22T03:15:42.305Z,59.89
2017-08-22T03:16:14.634Z,59.89
2017-08-22T03:16:46.916Z,59.69
2017-08-22T03:17:19.182Z,59.6
2017-08-22T03:17:51.446Z,59.69
2017-08-22T03:18:23.713Z,59.41
2017-08-22T03:18:55.990Z,59.41
2017-08-22T03:19:28.234Z,59.69
2017-08-22T03:20:00.486Z,59.89
2017-08-22T03:20:32.747Z,59.69
2017-08-22T03:21:05.039Z,59.79
2017-08-22T03:21:37.274Z,59.6
2017-08-22T03:22:09.544Z,59.69
2017-08-22T03:22:41.800Z,59.89
2017-08-22T03:23:14.079Z,59.79
2017-08-22T03:23:46.396Z,59.69
2017-08-22T03:24:18.695Z,59.79
2017-08-22T03:24:51.009Z,59.89
2017-08-22T03:25:23.303Z,60.08
2017-08-22T03:25:55.592Z,59.89
2017-08-22T03:26:27.878Z,59.79
2017-08-22T03:27:00.177Z,60.17
2017-08-22T03:27:32.477Z,59.89
2017-08-22T03:28:04.763Z,60.08
2017-08-22T03:28:37.045Z,59.89
2017-08-22T03:29:09.336Z,60.08
2017-08-22T03:29:41.629Z,59.69
2017-08-22T03:30:13.944Z,59.69
2017-08-22T03:30:46.259Z,59.89
2017-08-22T03:31:18.586Z,59.69
2017-08-22T03:31:50.897Z,60.08
2017-08-22T03:32:23.192Z,59.41
2017-08-22T03:32:55.481Z,59.6
2017-08-22T03:33:27.750Z,60.17
2017-08-22T03:34:00.012Z,59.79
2017-08-22T03:34:32.273Z,59.6
2017-08-22T03:35:04.544Z,60.08
2017-08-22T03:35:36.901Z,59.99
2017-08-22T03:36:09.146Z,60.08
2017-08-22T03:36:41.416Z,60.08
2017-08-22T03:37:13.744Z,59.89
2017-08-22T03:37:46.005Z,60.08
2017-08-22T03:38:18.265Z,60.08
2017-08-22T03:38:50.529Z,60.08
2017-08-22T03:39:22.790Z,60.27
2017-08-22T03:39:55.042Z,60.08
2017-08-22T03:40:27.311Z,60.08
2017-08-22T03:41:00.298Z,60.08
2017-08-22T03:41:32.568Z,60.08
2017-08-22T03:42:04.839Z,60.08
2017-08-22T03:42:37.116Z,59.6
2017-08-22T03:43:09.520Z,60.08
2017-08-22T03:43:41.771Z,60.17
2017-08-22T03:44:14.114Z,59.99
2017-08-22T03:44:46.347Z,60.08
2017-08-22T03:45:18.604Z,59.99
2017-08-22T03:45:50.876Z,60.17
2017-08-22T03:46:23.148Z,60.08
2017-08-22T03:46:55.419Z,60.08
2017-08-22T03:47:27.727Z,60.08
2017-08-22T03:47:59.986Z,60.17
2017-08-22T03:48:32.248Z,59.89
2017-08-22T03:49:04.530Z,60.08
2017-08-22T03:49:36.810Z,60.27
2017-08-22T03:50:09.063Z,60.08
2017-08-22T03:50:41.320Z,59.99
2017-08-22T03:51:13.571Z,59.99
2017-08-22T03:51:45.854Z,59.99
2017-08-22T03:52:18.134Z,59.99
2017-08-22T03:52:50.523Z,60.27
2017-08-22T03:53:22.798Z,60.27
2017-08-22T03:53:55.153Z,60.27
2017-08-22T03:54:27.429Z,59.69
2017-08-22T03:54:59.723Z,59.99
2017-08-22T03:55:32.012Z,59.99
2017-08-22T03:56:04.266Z,59.99
2017-08-22T03:56:36.547Z,60.27
2017-08-22T03:57:08.798Z,60.17
2017-08-22T03:57:41.171Z,59.6
2017-08-22T03:58:13.427Z,59.99
2017-08-22T03:58:45.684Z,60.27
2017-08-22T03:59:17.980Z,59.89
2017-08-22T03:59:50.250Z,59.99
2017-08-22T04:00:22.533Z,59.6
2017-08-22T04:00:54.780Z,59.6
2017-08-22T04:01:27.071Z,59.69
2017-08-22T04:01:59.333Z,60.27
2017-08-22T04:02:31.601Z,60.17
2017-08-22T04:03:03.892Z,59.99
2017-08-22T04:03:36.188Z,59.69
2017-08-22T04:04:08.481Z,60.08
2017-08-22T04:04:40.771Z,59.6
2017-08-22T04:05:13.071Z,59.6
2017-08-22T04:05:45.373Z,59.79
2017-08-22T04:06:17.680Z,59.89
2017-08-22T04:06:49.974Z,59.6
2017-08-22T04:07:22.248Z,59.79
2017-08-22T04:07:54.556Z,59.6
2017-08-22T04:08:26.848Z,59.89
2017-08-22T04:08:59.140Z,59.89
2017-08-22T04:09:31.435Z,59.99
2017-08-22T04:10:03.735Z,60.08
2017-08-22T04:10:36.047Z,59.79
2017-08-22T04:11:08.341Z,59.69
2017-08-22T04:11:40.650Z,59.79
2017-08-22T04:12:12.949Z,59.79
2017-08-22T04:12:45.250Z,59.79
2017-08-22T04:13:17.555Z,59.79
2017-08-22T04:13:49.859Z,59.99
2017-08-22T04:14:22.152Z,59.89
2017-08-22T04:14:54.457Z,59.99
2017-08-22T04:15:26.773Z,59.89
2017-08-22T04:15:59.076Z,60.17
2017-08-22T04:16:31.373Z,59.89
2017-08-22T04:17:03.681Z,59.89
2017-08-22T04:17:35.968Z,60.08
2017-08-22T04:18:08.262Z,59.89
2017-08-22T04:18:40.557Z,59.79
2017-08-22T04:19:12.856Z,59.79
2017-08-22T04:19:45.164Z,59.99
2017-08-22T04:20:17.465Z,59.69
2017-08-22T04:20:49.766Z,59.89
2017-08-22T04:21:22.069Z,59.89
2017-08-22T04:21:54.365Z,60.37
2017-08-22T04:22:26.650Z,59.69
2017-08-22T04:22:58.950Z,60.08
2017-08-22T04:23:31.217Z,60.27
2017-08-22T04:24:03.499Z,59.89
2017-08-22T04:24:35.755Z,59.99
2017-08-22T04:25:08.024Z,59.89
2017-08-22T04:25:40.285Z,59.89
2017-08-22T04:26:12.553Z,60.08
2017-08-22T04:26:44.807Z,60.08
2017-08-22T04:27:17.073Z,59.89
2017-08-22T04:27:49.318Z,59.69
2017-08-22T04:28:21.638Z,59.69
2017-08-22T04:28:53.908Z,60.08
2017-08-22T04:29:26.154Z,59.99
2017-08-22T04:29:58.423Z,59.89
2017-08-22T04:30:30.676Z,60.17
2017-08-22T04:31:02.948Z,59.79
2017-08-22T04:31:35.305Z,59.99
2017-08-22T04:32:07.562Z,59.76
2017-08-22T04:32:39.822Z,59.95
2017-08-22T04:33:12.134Z,59.89
2017-08-22T04:33:44.472Z,60.17
2017-08-22T04:34:16.769Z,59.69
2017-08-22T04:34:49.045Z,59.99
2017-08-22T04:35:21.340Z,60.08
2017-08-22T04:35:53.586Z,60.17
2017-08-22T04:36:25.980Z,60.17
2017-08-22T04:36:58.238Z,59.99
2017-08-22T04:37:30.486Z,60.17
2017-08-22T04:38:02.767Z,60.08
2017-08-22T04:38:35.048Z,60.17
2017-08-22T04:39:07.323Z,59.79
2017-08-22T04:39:39.620Z,60.08
2017-08-22T04:40:11.865Z,60.08
2017-08-22T04:40:44.105Z,59.99
2017-08-22T04:41:16.376Z,60.17
2017-08-22T04:41:48.649Z,60.17
2017-08-22T04:42:20.901Z,59.69
2017-08-22T04:42:53.173Z,59.95
2017-08-22T04:43:25.449Z,59.99
2017-08-22T04:43:57.717Z,60.17
2017-08-22T04:44:29.971Z,59.99
2017-08-22T04:45:02.235Z,59.69
2017-08-22T04:45:34.516Z,59.99
2017-08-22T04:46:06.788Z,59.86
2017-08-22T04:46:39.045Z,59.99
2017-08-22T04:47:11.294Z,59.99
2017-08-22T04:47:43.562Z,60.08
2017-08-22T04:48:15.821Z,60.08
2017-08-22T04:48:48.104Z,60.08
2017-08-22T04:49:20.348Z,60.17
2017-08-22T04:49:52.591Z,59.99
2017-08-22T04:50:24.863Z,59.69
2017-08-22T04:50:57.111Z,60.08
2017-08-22T04:51:29.370Z,59.79
2017-08-22T04:52:01.689Z,60.08
2017-08-22T04:52:33.952Z,59.99
2017-08-22T04:53:06.222Z,59.99
2017-08-22T04:53:38.506Z,60.08
2017-08-22T04:54:10.817Z,60.17
2017-08-22T04:54:43.138Z,59.95
2017-08-22T04:55:15.451Z,59.69
2017-08-22T04:55:47.738Z,60.08
2017-08-22T04:56:20.032Z,59.79
2017-08-22T04:56:52.337Z,60.08
2017-08-22T04:57:24.646Z,59.69
2017-08-22T04:57:56.940Z,60.08
2017-08-22T04:58:29.238Z,60.17
2017-08-22T04:59:01.544Z,59.79
2017-08-22T04:59:33.846Z,59.99
2017-08-22T05:00:06.161Z,60.08
2017-08-22T05:00:38.469Z,59.89
2017-08-22T05:01:10.780Z,60.08
2017-08-22T05:01:43.078Z,60.27
2017-08-22T05:02:15.362Z,60.08
2017-08-22T05:02:47.673Z,60.08
2017-08-22T05:03:19.946Z,59.99
2017-08-22T05:03:52.239Z,60.17
2017-08-22T05:04:24.482Z,59.89
2017-08-22T05:04:56.749Z,59.89
2017-08-22T05:05:29.489Z,59.99
2017-08-22T05:06:01.770Z,59.89
2017-08-22T05:06:34.084Z,59.89
2017-08-22T05:07:06.392Z,59.89
2017-08-22T05:07:38.650Z,60.27
2017-08-22T05:08:10.924Z,59.89
2017-08-22T05:08:43.178Z,59.89
2017-08-22T05:09:15.438Z,59.89
2017-08-22T05:09:47.725Z,59.89
2017-08-22T05:10:19.999Z,59.89
2017-08-22T05:10:52.940Z,59.6
2017-08-22T05:11:25.211Z,60.08
2017-08-22T05:11:57.453Z,59.89
2017-08-22T05:12:29.742Z,59.99
2017-08-22T05:13:02.048Z,59.79
2017-08-22T05:13:34.339Z,59.89
2017-08-22T05:14:06.650Z,59.79
2017-08-22T05:14:38.978Z,60.27
2017-08-22T05:15:11.295Z,59.69
2017-08-22T05:15:43.580Z,59.79
2017-08-22T05:16:15.884Z,59.89
2017-08-22T05:16:48.168Z,59.89
2017-08-22T05:17:20.474Z,59.6
2017-08-22T05:17:52.762Z,59.69
2017-08-22T05:18:25.062Z,59.69
2017-08-22T05:18:57.369Z,60.08
2017-08-22T05:19:29.672Z,60.27
2017-08-22T05:20:01.967Z,59.99
2017-08-22T05:20:34.274Z,59.6
2017-08-22T05:21:06.572Z,60.27
2017-08-22T05:21:38.869Z,60.27
2017-08-22T05:22:11.165Z,59.99
2017-08-22T05:22:43.451Z,60.08
2017-08-22T05:23:15.741Z,59.89
2017-08-22T05:23:48.060Z,60.08
2017-08-22T05:24:20.327Z,59.99
2017-08-22T05:24:52.702Z,60.08
2017-08-22T05:25:25.449Z,59.79
2017-08-22T05:25:57.744Z,59.99
2017-08-22T05:26:30.022Z,60.08
2017-08-22T05:27:02.300Z,60.08
2017-08-22T05:27:34.580Z,60.17
2017-08-22T05:28:07.022Z,60.08
2017-08-22T05:28:39.294Z,59.79
2017-08-22T05:29:11.545Z,59.6
2017-08-22T05:29:43.814Z,60.08
2017-08-22T05:30:16.115Z,59.99
2017-08-22T05:30:48.365Z,59.6
2017-08-22T05:31:20.651Z,59.79
2017-08-22T05:31:53.044Z,60.08
2017-08-22T05:32:25.300Z,60.17
2017-08-22T05:32:57.581Z,60.08
2017-08-22T05:33:29.850Z,59.79
2017-08-22T05:34:02.120Z,59.6
2017-08-22T05:34:34.529Z,59.79
2017-08-22T05:35:06.788Z,59.69
2017-08-22T05:35:39.025Z,59.89
2017-08-22T05:36:11.279Z,59.89
2017-08-22T05:36:43.621Z,59.89
2017-08-22T05:37:16.115Z,59.99
2017-08-22T05:37:48.366Z,60.08
2017-08-22T05:38:20.630Z,59.6
2017-08-22T05:38:52.904Z,59.79
2017-08-22T05:39:25.216Z,59.82
2017-08-22T05:39:57.506Z,59.79
2017-08-22T05:40:29.755Z,59.89
2017-08-22T05:41:02.030Z,59.6
2017-08-22T05:41:34.300Z,59.6
2017-08-22T05:42:06.540Z,59.31
2017-08-22T05:42:38.926Z,59.89
2017-08-22T05:43:11.182Z,59.89
2017-08-22T05:43:43.459Z,59.89
2017-08-22T05:44:15.765Z,59.69
2017-08-22T05:44:48.657Z,59.79
2017-08-22T05:45:22.542Z,59.6
2017-08-22T05:45:55.648Z,59.72
2017-08-22T05:46:27.938Z,59.69
2017-08-22T05:47:00.223Z,59.5
2017-08-22T05:47:32.504Z,59.72
2017-08-22T05:48:04.820Z,59.72
2017-08-22T05:48:37.124Z,59.72
2017-08-22T05:49:09.448Z,59.92
2017-08-22T05:49:41.726Z,59.72
2017-08-22T05:50:14.024Z,59.89
2017-08-22T05:50:46.300Z,59.79
2017-08-22T05:51:18.612Z,59.63
2017-08-22T05:51:50.912Z,59.72
2017-08-22T05:52:23.203Z,59.82
2017-08-22T05:52:55.507Z,59.72
2017-08-22T05:53:27.805Z,59.72
2017-08-22T05:54:00.143Z,59.72
2017-08-22T05:54:32.431Z,59.72
2017-08-22T05:55:04.726Z,59.82
2017-08-22T05:55:37.024Z,59.72
2017-08-22T05:56:09.324Z,59.72
2017-08-22T05:56:41.650Z,59.72
2017-08-22T05:57:13.980Z,59.92
2017-08-22T05:57:46.276Z,59.72
2017-08-22T05:58:18.611Z,59.92
2017-08-22T05:58:50.913Z,59.92
2017-08-22T05:59:23.189Z,59.44
2017-08-22T05:59:55.496Z,59.44
2017-08-22T06:00:27.795Z,59.82
2017-08-22T06:01:00.080Z,59.53
2017-08-22T06:01:32.380Z,59.53
2017-08-22T06:02:04.704Z,59.15
2017-08-22T06:02:37.008Z,59.15
2017-08-22T06:03:09.289Z,59.92
2017-08-22T06:03:41.523Z,59.05
2017-08-22T06:04:13.796Z,59.34
2017-08-22T06:04:46.119Z,59.24
2017-08-22T06:05:18.434Z,59.34
2017-08-22T06:05:50.693Z,59.37
2017-08-22T06:06:22.960Z,59.15
2017-08-22T06:06:55.231Z,59.15
2017-08-22T06:07:27.521Z,59.05
2017-08-22T06:07:59.933Z,59.05
2017-08-22T06:08:32.197Z,59.05
2017-08-22T06:09:04.496Z,59.24
2017-08-22T06:09:36.780Z,59.44
2017-08-22T06:10:09.146Z,59.34
2017-08-22T06:10:41.402Z,59.47
2017-08-22T06:11:13.784Z,59.17
2017-08-22T06:11:46.274Z,59.56
2017-08-22T06:12:18.640Z,59.37
2017-08-22T06:12:51.041Z,59.56
2017-08-22T06:13:23.309Z,59.47
2017-08-22T06:13:55.602Z,59.56
2017-08-22T06:14:27.624Z,59.66
2017-08-22T06:14:59.936Z,59.27
2017-08-22T06:15:32.236Z,59.27
2017-08-22T06:16:04.531Z,59.56
2017-08-22T06:16:36.867Z,59.27
2017-08-22T06:17:09.229Z,59.37
2017-08-22T06:17:42.482Z,59.56
2017-08-22T06:18:14.920Z,59.37
2017-08-22T06:18:48.150Z,59.37
2017-08-22T06:20:40.005Z,59.37
2017-08-22T06:21:12.311Z,59.47
2017-08-22T06:21:45.503Z,59.17
2017-08-22T06:22:17.819Z,59.56
2017-08-22T06:22:50.100Z,59.17
2017-08-22T06:23:22.392Z,59.47
2017-08-22T06:23:54.702Z,59.08
2017-08-22T06:24:26.989Z,59.56
2017-08-22T06:24:59.278Z,59.47
2017-08-22T06:25:31.573Z,58.89
2017-08-22T06:26:03.842Z,59.27
2017-08-22T06:26:36.140Z,59.27
2017-08-22T06:27:08.614Z,59.2
2017-08-22T06:27:41.421Z,59.37
2017-08-22T06:28:14.808Z,59.3
2017-08-22T06:28:48.280Z,59.3
2017-08-22T06:29:21.079Z,59.3
2017-08-22T06:29:56.574Z,59.3
2017-08-22T06:30:28.887Z,59.27
2017-08-22T06:31:02.872Z,59.3
2017-08-22T06:31:36.559Z,59.2
2017-08-22T06:32:08.995Z,59.2
2017-08-22T06:32:42.572Z,59.3
2017-08-22T06:33:15.243Z,59.2
2017-08-22T06:33:47.544Z,59.3
2017-08-22T06:34:19.834Z,58.92
2017-08-22T06:34:52.119Z,59.11
2017-08-22T06:35:24.423Z,59.01
2017-08-22T06:35:56.725Z,58.72
2017-08-22T06:36:29.024Z,58.72
2017-08-22T06:37:01.658Z,59.11
2017-08-22T06:37:35.196Z,59.11
2017-08-22T06:38:07.837Z,59.11
2017-08-22T06:38:40.226Z,59.01
2017-08-22T06:39:12.536Z,59.01
2017-08-22T06:39:44.582Z,59.11
2017-08-22T06:40:16.887Z,59.01
2017-08-22T06:40:49.185Z,59.11
2017-08-22T06:41:21.529Z,58.92
2017-08-22T06:41:53.808Z,59.01
2017-08-22T06:42:26.088Z,59.23
2017-08-22T06:42:58.400Z,58.82
2017-08-22T06:43:30.696Z,59.14
2017-08-22T06:44:02.989Z,58.95
2017-08-22T06:44:35.289Z,58.95
2017-08-22T06:45:08.334Z,58.85
2017-08-22T06:45:41.315Z,58.85
2017-08-22T06:46:13.605Z,58.85
2017-08-22T06:46:46.280Z,58.85
2017-08-22T06:48:38.031Z,58.56
2017-08-22T06:49:10.351Z,58.95
2017-08-22T06:49:42.731Z,59.04
2017-08-22T06:50:15.009Z,58.95
2017-08-22T06:50:47.288Z,58.95
2017-08-22T06:51:19.721Z,58.95
2017-08-22T06:51:53.009Z,59.14
2017-08-22T06:52:25.336Z,58.65
2017-08-22T06:52:57.767Z,59.04
2017-08-22T06:53:30.148Z,58.65
2017-08-22T06:54:02.460Z,58.75
2017-08-22T06:54:34.768Z,58.65
2017-08-22T06:55:07.075Z,58.95
2017-08-22T06:55:39.388Z,58.85
2017-08-22T06:56:11.689Z,58.56
2017-08-22T06:56:44.464Z,58.65
2017-08-22T06:57:16.737Z,58.59
2017-08-22T06:57:49.068Z,58.78
2017-08-22T06:58:21.362Z,58.27
2017-08-22T06:58:53.641Z,58.75
2017-08-22T06:59:25.950Z,58.49
2017-08-22T06:59:58.250Z,58.59
2017-08-22T07:00:30.560Z,58.59
2017-08-22T07:02:22.147Z,58.49
2017-08-22T07:02:54.476Z,58.49
2017-08-22T07:03:26.846Z,58.49